sensor_id;sensor_type;location;lat;lon;timestamp;temperature;humidity
7445;DHT22;3764;48.126;11.594;2023-04-24T00:01:22;11.10;99.90
7445;DHT22;3764;48.126;11.594;2023-04-24T00:03:49;11.00;99.90
7445;DHT22;3764;48.126;11.594;2023-04-24T00:06:17;10.90;99.90
7445;DHT22;3764;48.126;11.594;2023-04-24T00:08:44;10.90;99.90
7445;DHT22;3764;48.126;11.594;2023-04-24T00:11:11;10.90;99.90
7445;DHT22;3764;48.126;11.594;2023-04-24T00:13:39;10.90;99.90
7445;DHT22;3764;48.126;11.594;2023-04-24T00:16:06;10.90;99.90
7445;DHT22;3764;48.126;11.594;2023-04-24T00:18:33;10.80;99.90
7445;DHT22;3764;48.126;11.594;2023-04-24T00:21:00;10.80;99.90
7445;DHT22;3764;48.126;11.594;2023-04-24T00:23:30;10.70;99.90
7445;DHT22;3764;48.126;11.594;2023-04-24T00:25:57;10.70;99.90
7445;DHT22;3764;48.126;11.594;2023-04-24T00:28:24;10.70;99.90
7445;DHT22;3764;48.126;11.594;2023-04-24T00:30:51;10.70;99.90
7445;DHT22;3764;48.126;11.594;2023-04-24T00:33:19;10.70;99.90
7445;DHT22;3764;48.126;11.594;2023-04-24T00:35:46;10.80;99.90
7445;DHT22;3764;48.126;11.594;2023-04-24T00:38:13;10.80;99.90
7445;DHT22;3764;48.126;11.594;2023-04-24T00:40:42;10.80;99.90
7445;DHT22;3764;48.126;11.594;2023-04-24T00:43:09;10.80;99.90
7445;DHT22;3764;48.126;11.594;2023-04-24T00:45:36;10.80;99.90
7445;DHT22;3764;48.126;11.594;2023-04-24T00:48:04;10.70;99.90
7445;DHT22;3764;48.126;11.594;2023-04-24T00:50:31;10.70;99.90
7445;DHT22;3764;48.126;11.594;2023-04-24T00:52:59;10.70;99.90
7445;DHT22;3764;48.126;11.594;2023-04-24T00:55:26;10.70;99.90
7445;DHT22;3764;48.126;11.594;2023-04-24T00:57:55;10.70;99.90
7445;DHT22;3764;48.126;11.594;2023-04-24T01:00:22;10.70;99.90
7445;DHT22;3764;48.126;11.594;2023-04-24T01:02:49;10.70;99.90
7445;DHT22;3764;48.126;11.594;2023-04-24T01:05:17;10.70;99.90
7445;DHT22;3764;48.126;11.594;2023-04-24T01:07:45;10.70;99.90
7445;DHT22;3764;48.126;11.594;2023-04-24T01:10:15;10.70;99.90
7445;DHT22;3764;48.126;11.594;2023-04-24T01:12:43;10.80;99.90
7445;DHT22;3764;48.126;11.594;2023-04-24T01:15:12;10.70;99.90
7445;DHT22;3764;48.126;11.594;2023-04-24T01:17:39;10.70;99.90
7445;DHT22;3764;48.126;11.594;2023-04-24T01:20:07;10.70;99.90
7445;DHT22;3764;48.126;11.594;2023-04-24T01:22:36;10.60;99.90
7445;DHT22;3764;48.126;11.594;2023-04-24T01:25:04;10.70;99.90
7445;DHT22;3764;48.126;11.594;2023-04-24T01:27:31;10.60;99.90
7445;DHT22;3764;48.126;11.594;2023-04-24T01:29:59;10.60;99.90
7445;DHT22;3764;48.126;11.594;2023-04-24T01:32:26;10.60;99.90
7445;DHT22;3764;48.126;11.594;2023-04-24T01:34:54;10.50;99.90
7445;DHT22;3764;48.126;11.594;2023-04-24T01:37:22;10.60;99.90
7445;DHT22;3764;48.126;11.594;2023-04-24T01:39:50;10.60;99.90
7445;DHT22;3764;48.126;11.594;2023-04-24T01:42:17;10.60;99.90
7445;DHT22;3764;48.126;11.594;2023-04-24T01:44:44;10.60;99.90
7445;DHT22;3764;48.126;11.594;2023-04-24T01:47:12;10.60;99.90
7445;DHT22;3764;48.126;11.594;2023-04-24T01:49:39;10.50;99.90
7445;DHT22;3764;48.126;11.594;2023-04-24T01:52:06;10.50;99.90
7445;DHT22;3764;48.126;11.594;2023-04-24T01:54:33;10.50;99.90
7445;DHT22;3764;48.126;11.594;2023-04-24T01:57:02;10.50;99.90
7445;DHT22;3764;48.126;11.594;2023-04-24T01:59:30;10.50;99.90
7445;DHT22;3764;48.126;11.594;2023-04-24T02:01:58;10.40;99.90
7445;DHT22;3764;48.126;11.594;2023-04-24T02:04:25;10.40;99.90
7445;DHT22;3764;48.126;11.594;2023-04-24T02:06:52;10.40;99.90
7445;DHT22;3764;48.126;11.594;2023-04-24T02:09:19;10.40;99.90
7445;DHT22;3764;48.126;11.594;2023-04-24T02:11:46;10.40;99.90
7445;DHT22;3764;48.126;11.594;2023-04-24T02:14:15;10.30;99.90
7445;DHT22;3764;48.126;11.594;2023-04-24T02:16:42;10.30;99.90
7445;DHT22;3764;48.126;11.594;2023-04-24T02:19:09;10.30;99.90
7445;DHT22;3764;48.126;11.594;2023-04-24T02:21:36;10.40;99.90
7445;DHT22;3764;48.126;11.594;2023-04-24T02:24:03;10.40;99.90
7445;DHT22;3764;48.126;11.594;2023-04-24T02:26:31;10.30;99.90
7445;DHT22;3764;48.126;11.594;2023-04-24T02:28:58;10.30;99.90
7445;DHT22;3764;48.126;11.594;2023-04-24T02:31:27;10.40;99.90
7445;DHT22;3764;48.126;11.594;2023-04-24T02:33:54;10.30;99.90
7445;DHT22;3764;48.126;11.594;2023-04-24T02:36:21;10.30;99.90
7445;DHT22;3764;48.126;11.594;2023-04-24T02:38:48;10.30;99.90
7445;DHT22;3764;48.126;11.594;2023-04-24T02:41:15;10.20;99.90
7445;DHT22;3764;48.126;11.594;2023-04-24T02:43:44;10.20;99.90
7445;DHT22;3764;48.126;11.594;2023-04-24T02:46:11;10.30;99.90
7445;DHT22;3764;48.126;11.594;2023-04-24T02:48:39;10.30;99.90
7445;DHT22;3764;48.126;11.594;2023-04-24T02:51:06;10.30;99.90
7445;DHT22;3764;48.126;11.594;2023-04-24T02:53:33;10.30;99.90
7445;DHT22;3764;48.126;11.594;2023-04-24T02:56:01;10.30;99.90
7445;DHT22;3764;48.126;11.594;2023-04-24T02:58:28;10.20;99.90
7445;DHT22;3764;48.126;11.594;2023-04-24T03:00:55;10.20;99.90
7445;DHT22;3764;48.126;11.594;2023-04-24T03:03:22;10.20;99.90
7445;DHT22;3764;48.126;11.594;2023-04-24T03:05:51;10.20;99.90
7445;DHT22;3764;48.126;11.594;2023-04-24T03:08:18;10.20;99.90
7445;DHT22;3764;48.126;11.594;2023-04-24T03:10:45;10.20;99.90
7445;DHT22;3764;48.126;11.594;2023-04-24T03:13:12;10.20;99.90
7445;DHT22;3764;48.126;11.594;2023-04-24T03:15:39;10.20;99.90
7445;DHT22;3764;48.126;11.594;2023-04-24T03:18:06;10.10;99.90
7445;DHT22;3764;48.126;11.594;2023-04-24T03:20:33;10.20;99.90
7445;DHT22;3764;48.126;11.594;2023-04-24T03:23:06;10.20;99.90
7445;DHT22;3764;48.126;11.594;2023-04-24T03:25:33;10.10;99.90
7445;DHT22;3764;48.126;11.594;2023-04-24T03:28:00;10.00;99.90
7445;DHT22;3764;48.126;11.594;2023-04-24T03:30:27;9.90;99.90
7445;DHT22;3764;48.126;11.594;2023-04-24T03:32:54;9.90;99.90
7445;DHT22;3764;48.126;11.594;2023-04-24T03:35:21;9.90;99.90
7445;DHT22;3764;48.126;11.594;2023-04-24T03:37:48;9.90;99.90
7445;DHT22;3764;48.126;11.594;2023-04-24T03:40:17;9.90;99.90
7445;DHT22;3764;48.126;11.594;2023-04-24T03:42:44;9.80;99.90
7445;DHT22;3764;48.126;11.594;2023-04-24T03:45:11;9.80;99.90
7445;DHT22;3764;48.126;11.594;2023-04-24T03:47:38;9.80;99.90
7445;DHT22;3764;48.126;11.594;2023-04-24T03:50:06;9.80;99.90
7445;DHT22;3764;48.126;11.594;2023-04-24T03:52:33;9.80;99.90
7445;DHT22;3764;48.126;11.594;2023-04-24T03:55:00;9.70;99.90
7445;DHT22;3764;48.126;11.594;2023-04-24T03:57:29;9.70;99.90
7445;DHT22;3764;48.126;11.594;2023-04-24T03:59:56;9.70;99.90
7445;DHT22;3764;48.126;11.594;2023-04-24T04:02:23;9.70;99.90
7445;DHT22;3764;48.126;11.594;2023-04-24T04:04:50;9.70;99.90
7445;DHT22;3764;48.126;11.594;2023-04-24T04:07:17;9.70;99.90
7445;DHT22;3764;48.126;11.594;2023-04-24T04:09:44;9.70;99.90
7445;DHT22;3764;48.126;11.594;2023-04-24T04:12:11;9.70;99.90
7445;DHT22;3764;48.126;11.594;2023-04-24T04:14:40;9.70;99.90
7445;DHT22;3764;48.126;11.594;2023-04-24T04:17:07;9.70;99.90
7445;DHT22;3764;48.126;11.594;2023-04-24T04:19:35;9.70;99.90
7445;DHT22;3764;48.126;11.594;2023-04-24T04:22:02;9.70;99.90
7445;DHT22;3764;48.126;11.594;2023-04-24T04:24:29;9.70;99.90
7445;DHT22;3764;48.126;11.594;2023-04-24T04:26:56;9.70;99.90
7445;DHT22;3764;48.126;11.594;2023-04-24T04:29:23;9.70;99.90
7445;DHT22;3764;48.126;11.594;2023-04-24T04:31:53;9.70;99.90
7445;DHT22;3764;48.126;11.594;2023-04-24T04:34:20;9.70;99.90
7445;DHT22;3764;48.126;11.594;2023-04-24T04:36:48;9.70;99.90
7445;DHT22;3764;48.126;11.594;2023-04-24T04:39:16;9.70;99.90
7445;DHT22;3764;48.126;11.594;2023-04-24T04:41:44;9.80;99.90
7445;DHT22;3764;48.126;11.594;2023-04-24T04:44:14;9.80;99.90
7445;DHT22;3764;48.126;11.594;2023-04-24T04:46:41;9.70;99.90
7445;DHT22;3764;48.126;11.594;2023-04-24T04:49:09;9.70;99.90
7445;DHT22;3764;48.126;11.594;2023-04-24T04:51:37;9.70;99.90
7445;DHT22;3764;48.126;11.594;2023-04-24T04:54:04;9.70;99.90
7445;DHT22;3764;48.126;11.594;2023-04-24T04:56:31;9.70;99.90
7445;DHT22;3764;48.126;11.594;2023-04-24T04:58:58;9.70;99.90
7445;DHT22;3764;48.126;11.594;2023-04-24T05:01:25;9.70;99.90
7445;DHT22;3764;48.126;11.594;2023-04-24T05:03:53;9.70;99.90
7445;DHT22;3764;48.126;11.594;2023-04-24T05:06:21;9.70;99.90
7445;DHT22;3764;48.126;11.594;2023-04-24T05:08:48;9.70;99.90
7445;DHT22;3764;48.126;11.594;2023-04-24T05:11:16;9.70;99.90
7445;DHT22;3764;48.126;11.594;2023-04-24T05:13:43;9.70;99.90
7445;DHT22;3764;48.126;11.594;2023-04-24T05:16:10;9.80;99.90
7445;DHT22;3764;48.126;11.594;2023-04-24T05:18:38;9.80;99.90
7445;DHT22;3764;48.126;11.594;2023-04-24T05:21:05;9.80;99.90
7445;DHT22;3764;48.126;11.594;2023-04-24T05:23:33;9.80;99.90
7445;DHT22;3764;48.126;11.594;2023-04-24T05:26:00;9.80;99.90
7445;DHT22;3764;48.126;11.594;2023-04-24T05:28:28;9.80;99.90
7445;DHT22;3764;48.126;11.594;2023-04-24T05:30:55;9.80;99.90
7445;DHT22;3764;48.126;11.594;2023-04-24T05:33:22;9.80;99.90
7445;DHT22;3764;48.126;11.594;2023-04-24T05:35:49;9.80;99.90
7445;DHT22;3764;48.126;11.594;2023-04-24T05:38:16;9.80;99.90
7445;DHT22;3764;48.126;11.594;2023-04-24T05:40:46;9.80;99.90
7445;DHT22;3764;48.126;11.594;2023-04-24T05:43:13;9.80;99.90
7445;DHT22;3764;48.126;11.594;2023-04-24T05:45:40;9.80;99.90
7445;DHT22;3764;48.126;11.594;2023-04-24T05:48:07;9.90;99.90
7445;DHT22;3764;48.126;11.594;2023-04-24T05:50:34;9.90;99.90
7445;DHT22;3764;48.126;11.594;2023-04-24T05:53:01;9.90;99.90
7445;DHT22;3764;48.126;11.594;2023-04-24T05:55:29;9.90;99.90
7445;DHT22;3764;48.126;11.594;2023-04-24T05:57:58;9.90;99.90
7445;DHT22;3764;48.126;11.594;2023-04-24T06:00:26;9.90;99.90
7445;DHT22;3764;48.126;11.594;2023-04-24T06:02:54;9.90;99.90
7445;DHT22;3764;48.126;11.594;2023-04-24T06:05:21;9.90;99.90
7445;DHT22;3764;48.126;11.594;2023-04-24T06:07:48;10.00;99.90
7445;DHT22;3764;48.126;11.594;2023-04-24T06:10:15;9.90;99.90
7445;DHT22;3764;48.126;11.594;2023-04-24T06:12:42;9.90;99.90
7445;DHT22;3764;48.126;11.594;2023-04-24T06:15:11;9.90;99.90
7445;DHT22;3764;48.126;11.594;2023-04-24T06:17:38;10.00;99.90
7445;DHT22;3764;48.126;11.594;2023-04-24T06:20:06;10.00;99.90
7445;DHT22;3764;48.126;11.594;2023-04-24T06:22:34;10.00;99.90
7445;DHT22;3764;48.126;11.594;2023-04-24T06:25:01;10.00;99.90
7445;DHT22;3764;48.126;11.594;2023-04-24T06:27:28;10.00;99.90
7445;DHT22;3764;48.126;11.594;2023-04-24T06:29:55;10.00;99.90
7445;DHT22;3764;48.126;11.594;2023-04-24T06:32:24;10.00;99.90
7445;DHT22;3764;48.126;11.594;2023-04-24T06:34:52;10.10;99.90
7445;DHT22;3764;48.126;11.594;2023-04-24T06:37:20;10.10;99.90
7445;DHT22;3764;48.126;11.594;2023-04-24T06:39:47;10.10;99.90
7445;DHT22;3764;48.126;11.594;2023-04-24T06:42:14;10.10;99.90
7445;DHT22;3764;48.126;11.594;2023-04-24T06:44:41;10.10;99.90
7445;DHT22;3764;48.126;11.594;2023-04-24T06:47:08;10.20;99.90
7445;DHT22;3764;48.126;11.594;2023-04-24T06:49:37;10.20;99.90
7445;DHT22;3764;48.126;11.594;2023-04-24T06:52:04;10.30;99.90
7445;DHT22;3764;48.126;11.594;2023-04-24T06:54:32;10.40;99.90
7445;DHT22;3764;48.126;11.594;2023-04-24T06:56:59;10.40;99.90
7445;DHT22;3764;48.126;11.594;2023-04-24T06:59:28;10.50;99.90
7445;DHT22;3764;48.126;11.594;2023-04-24T07:01:56;10.50;99.90
7445;DHT22;3764;48.126;11.594;2023-04-24T07:04:24;10.60;99.90
7445;DHT22;3764;48.126;11.594;2023-04-24T07:06:52;10.70;99.90
7445;DHT22;3764;48.126;11.594;2023-04-24T07:09:22;10.70;99.90
7445;DHT22;3764;48.126;11.594;2023-04-24T07:11:49;10.70;99.90
7445;DHT22;3764;48.126;11.594;2023-04-24T07:14:17;10.70;99.90
7445;DHT22;3764;48.126;11.594;2023-04-24T07:16:44;10.80;99.90
7445;DHT22;3764;48.126;11.594;2023-04-24T07:19:11;10.90;99.90
7445;DHT22;3764;48.126;11.594;2023-04-24T07:21:38;10.90;99.90
7445;DHT22;3764;48.126;11.594;2023-04-24T07:24:07;10.90;99.90
7445;DHT22;3764;48.126;11.594;2023-04-24T07:26:37;10.90;99.90
7445;DHT22;3764;48.126;11.594;2023-04-24T07:29:04;10.90;99.90
7445;DHT22;3764;48.126;11.594;2023-04-24T07:31:31;11.00;99.90
7445;DHT22;3764;48.126;11.594;2023-04-24T07:33:58;11.10;99.90
7445;DHT22;3764;48.126;11.594;2023-04-24T07:36:25;11.10;99.90
7445;DHT22;3764;48.126;11.594;2023-04-24T07:38:54;11.10;99.90
7445;DHT22;3764;48.126;11.594;2023-04-24T07:41:23;11.20;99.90
7445;DHT22;3764;48.126;11.594;2023-04-24T07:43:50;11.10;99.90
7445;DHT22;3764;48.126;11.594;2023-04-24T07:46:18;11.20;99.90
7445;DHT22;3764;48.126;11.594;2023-04-24T07:48:45;11.20;99.90
7445;DHT22;3764;48.126;11.594;2023-04-24T07:51:13;11.20;99.90
7445;DHT22;3764;48.126;11.594;2023-04-24T07:53:40;11.20;99.90
7445;DHT22;3764;48.126;11.594;2023-04-24T07:56:08;11.10;99.90
7445;DHT22;3764;48.126;11.594;2023-04-24T07:58:36;11.10;99.90
7445;DHT22;3764;48.126;11.594;2023-04-24T08:01:03;11.30;99.90
7445;DHT22;3764;48.126;11.594;2023-04-24T08:03:30;11.20;99.90
7445;DHT22;3764;48.126;11.594;2023-04-24T08:05:57;11.20;99.90
7445;DHT22;3764;48.126;11.594;2023-04-24T08:08:25;11.30;99.90
7445;DHT22;3764;48.126;11.594;2023-04-24T08:10:52;11.30;99.90
7445;DHT22;3764;48.126;11.594;2023-04-24T08:13:20;11.30;99.90
7445;DHT22;3764;48.126;11.594;2023-04-24T08:15:49;11.30;99.90
7445;DHT22;3764;48.126;11.594;2023-04-24T08:18:16;11.30;99.90
7445;DHT22;3764;48.126;11.594;2023-04-24T08:20:43;11.30;99.90
7445;DHT22;3764;48.126;11.594;2023-04-24T08:23:11;11.30;99.90
7445;DHT22;3764;48.126;11.594;2023-04-24T08:25:38;11.30;99.90
7445;DHT22;3764;48.126;11.594;2023-04-24T08:28:06;11.30;99.90
7445;DHT22;3764;48.126;11.594;2023-04-24T08:30:33;11.30;99.90
7445;DHT22;3764;48.126;11.594;2023-04-24T08:33:02;11.30;99.90
7445;DHT22;3764;48.126;11.594;2023-04-24T08:35:29;11.40;99.90
7445;DHT22;3764;48.126;11.594;2023-04-24T08:37:56;11.40;99.90
7445;DHT22;3764;48.126;11.594;2023-04-24T08:40:27;11.50;99.90
7445;DHT22;3764;48.126;11.594;2023-04-24T08:42:55;11.50;99.90
7445;DHT22;3764;48.126;11.594;2023-04-24T08:45:23;11.50;99.90
7445;DHT22;3764;48.126;11.594;2023-04-24T08:47:53;11.50;99.90
7445;DHT22;3764;48.126;11.594;2023-04-24T08:50:22;11.40;99.90
7445;DHT22;3764;48.126;11.594;2023-04-24T08:52:50;11.30;99.90
7445;DHT22;3764;48.126;11.594;2023-04-24T08:55:19;11.30;99.90
7445;DHT22;3764;48.126;11.594;2023-04-24T08:57:50;11.20;99.90
7445;DHT22;3764;48.126;11.594;2023-04-24T09:00:19;11.10;99.90
7445;DHT22;3764;48.126;11.594;2023-04-24T09:02:52;11.10;99.90
7445;DHT22;3764;48.126;11.594;2023-04-24T09:05:22;11.00;99.90
7445;DHT22;3764;48.126;11.594;2023-04-24T09:07:53;11.00;99.90
7445;DHT22;3764;48.126;11.594;2023-04-24T09:10:22;11.00;99.90
7445;DHT22;3764;48.126;11.594;2023-04-24T09:12:50;11.00;99.90
7445;DHT22;3764;48.126;11.594;2023-04-24T09:15:18;10.90;99.90
7445;DHT22;3764;48.126;11.594;2023-04-24T09:17:46;10.90;99.90
7445;DHT22;3764;48.126;11.594;2023-04-24T09:20:14;10.90;99.90
7445;DHT22;3764;48.126;11.594;2023-04-24T09:22:45;11.00;99.90
7445;DHT22;3764;48.126;11.594;2023-04-24T09:25:12;11.00;99.90
7445;DHT22;3764;48.126;11.594;2023-04-24T09:27:42;11.00;99.90
7445;DHT22;3764;48.126;11.594;2023-04-24T09:30:11;11.00;99.90
7445;DHT22;3764;48.126;11.594;2023-04-24T09:32:38;11.10;99.90
7445;DHT22;3764;48.126;11.594;2023-04-24T09:35:11;11.00;99.90
7445;DHT22;3764;48.126;11.594;2023-04-24T09:37:39;11.00;99.90
7445;DHT22;3764;48.126;11.594;2023-04-24T09:40:14;11.10;99.90
7445;DHT22;3764;48.126;11.594;2023-04-24T09:42:45;11.10;99.90
7445;DHT22;3764;48.126;11.594;2023-04-24T09:45:12;11.10;99.90
7445;DHT22;3764;48.126;11.594;2023-04-24T09:47:40;11.10;99.90
7445;DHT22;3764;48.126;11.594;2023-04-24T09:50:12;11.20;99.90
7445;DHT22;3764;48.126;11.594;2023-04-24T09:52:41;11.30;99.90
7445;DHT22;3764;48.126;11.594;2023-04-24T09:55:18;11.40;99.90
7445;DHT22;3764;48.126;11.594;2023-04-24T09:57:52;11.40;99.90
7445;DHT22;3764;48.126;11.594;2023-04-24T10:00:24;11.40;99.90
7445;DHT22;3764;48.126;11.594;2023-04-24T10:02:59;11.40;99.90
7445;DHT22;3764;48.126;11.594;2023-04-24T10:05:28;11.40;99.90
7445;DHT22;3764;48.126;11.594;2023-04-24T10:07:57;11.60;99.90
7445;DHT22;3764;48.126;11.594;2023-04-24T10:10:26;11.60;99.90
7445;DHT22;3764;48.126;11.594;2023-04-24T10:12:53;11.60;99.90
7445;DHT22;3764;48.126;11.594;2023-04-24T10:15:21;11.70;99.90
7445;DHT22;3764;48.126;11.594;2023-04-24T10:17:49;11.70;99.90
7445;DHT22;3764;48.126;11.594;2023-04-24T10:20:19;11.80;99.90
7445;DHT22;3764;48.126;11.594;2023-04-24T10:22:48;11.90;99.90
7445;DHT22;3764;48.126;11.594;2023-04-24T10:25:18;11.80;99.90
7445;DHT22;3764;48.126;11.594;2023-04-24T10:27:48;11.80;99.90
7445;DHT22;3764;48.126;11.594;2023-04-24T10:30:16;11.80;99.90
7445;DHT22;3764;48.126;11.594;2023-04-24T10:32:44;11.80;99.90
7445;DHT22;3764;48.126;11.594;2023-04-24T10:35:12;11.90;99.90
7445;DHT22;3764;48.126;11.594;2023-04-24T10:37:43;12.00;99.90
7445;DHT22;3764;48.126;11.594;2023-04-24T10:40:11;12.10;99.90
7445;DHT22;3764;48.126;11.594;2023-04-24T10:42:40;12.10;99.90
7445;DHT22;3764;48.126;11.594;2023-04-24T10:45:17;12.10;99.90
7445;DHT22;3764;48.126;11.594;2023-04-24T10:48:01;12.10;99.90
7445;DHT22;3764;48.126;11.594;2023-04-24T10:50:30;12.00;99.90
7445;DHT22;3764;48.126;11.594;2023-04-24T10:53:13;12.00;99.90
7445;DHT22;3764;48.126;11.594;2023-04-24T10:55:47;11.90;99.90
7445;DHT22;3764;48.126;11.594;2023-04-24T10:58:14;11.90;99.90
7445;DHT22;3764;48.126;11.594;2023-04-24T11:00:46;12.00;99.90
7445;DHT22;3764;48.126;11.594;2023-04-24T11:03:27;11.80;99.90
7445;DHT22;3764;48.126;11.594;2023-04-24T11:06:00;11.60;99.90
7445;DHT22;3764;48.126;11.594;2023-04-24T11:08:29;11.40;99.90
7445;DHT22;3764;48.126;11.594;2023-04-24T11:11:02;11.20;99.90
7445;DHT22;3764;48.126;11.594;2023-04-24T11:16:35;11.10;99.90
7445;DHT22;3764;48.126;11.594;2023-04-24T11:19:06;11.10;99.90
7445;DHT22;3764;48.126;11.594;2023-04-24T11:21:41;11.10;99.90
7445;DHT22;3764;48.126;11.594;2023-04-24T11:24:29;11.20;99.90
7445;DHT22;3764;48.126;11.594;2023-04-24T11:26:58;11.40;99.90
7445;DHT22;3764;48.126;11.594;2023-04-24T11:29:47;11.60;99.90
7445;DHT22;3764;48.126;11.594;2023-04-24T11:32:23;11.90;99.90
7445;DHT22;3764;48.126;11.594;2023-04-24T11:34:51;12.20;99.90
7445;DHT22;3764;48.126;11.594;2023-04-24T11:37:18;12.40;99.90
7445;DHT22;3764;48.126;11.594;2023-04-24T11:39:45;12.60;99.90
7445;DHT22;3764;48.126;11.594;2023-04-24T11:42:15;13.00;99.90
7445;DHT22;3764;48.126;11.594;2023-04-24T11:44:42;13.20;99.90
7445;DHT22;3764;48.126;11.594;2023-04-24T11:47:09;13.30;99.90
7445;DHT22;3764;48.126;11.594;2023-04-24T11:49:38;13.30;99.90
7445;DHT22;3764;48.126;11.594;2023-04-24T11:52:05;13.30;99.90
7445;DHT22;3764;48.126;11.594;2023-04-24T11:54:32;13.20;99.90
7445;DHT22;3764;48.126;11.594;2023-04-24T11:57:04;13.00;99.90
7445;DHT22;3764;48.126;11.594;2023-04-24T11:59:35;12.80;99.90
7445;DHT22;3764;48.126;11.594;2023-04-24T12:02:03;12.70;99.90
7445;DHT22;3764;48.126;11.594;2023-04-24T12:04:40;12.80;99.90
7445;DHT22;3764;48.126;11.594;2023-04-24T12:07:08;12.70;99.90
7445;DHT22;3764;48.126;11.594;2023-04-24T12:09:42;12.70;99.90
7445;DHT22;3764;48.126;11.594;2023-04-24T12:12:11;12.70;99.90
7445;DHT22;3764;48.126;11.594;2023-04-24T12:14:43;12.60;99.90
7445;DHT22;3764;48.126;11.594;2023-04-24T12:17:10;12.60;99.90
7445;DHT22;3764;48.126;11.594;2023-04-24T12:19:45;12.70;99.90
7445;DHT22;3764;48.126;11.594;2023-04-24T12:22:12;12.70;99.90
7445;DHT22;3764;48.126;11.594;2023-04-24T12:24:55;12.70;99.90
7445;DHT22;3764;48.126;11.594;2023-04-24T12:27:23;12.70;99.90
7445;DHT22;3764;48.126;11.594;2023-04-24T12:29:55;12.70;99.90
7445;DHT22;3764;48.126;11.594;2023-04-24T12:32:22;12.70;99.90
7445;DHT22;3764;48.126;11.594;2023-04-24T12:34:52;12.70;99.90
7445;DHT22;3764;48.126;11.594;2023-04-24T12:37:21;12.80;99.90
7445;DHT22;3764;48.126;11.594;2023-04-24T12:39:59;12.90;99.90
7445;DHT22;3764;48.126;11.594;2023-04-24T12:42:27;12.90;99.90
7445;DHT22;3764;48.126;11.594;2023-04-24T12:45:00;12.90;99.90
7445;DHT22;3764;48.126;11.594;2023-04-24T12:47:28;13.00;99.90
7445;DHT22;3764;48.126;11.594;2023-04-24T12:49:57;13.10;99.90
7445;DHT22;3764;48.126;11.594;2023-04-24T12:52:25;13.20;99.90
7445;DHT22;3764;48.126;11.594;2023-04-24T12:54:53;13.40;99.90
7445;DHT22;3764;48.126;11.594;2023-04-24T12:57:21;13.40;99.90
7445;DHT22;3764;48.126;11.594;2023-04-24T12:59:48;13.40;99.90
7445;DHT22;3764;48.126;11.594;2023-04-24T13:02:16;13.40;99.90
7445;DHT22;3764;48.126;11.594;2023-04-24T13:04:44;13.20;99.90
7445;DHT22;3764;48.126;11.594;2023-04-24T13:07:14;13.10;99.90
7445;DHT22;3764;48.126;11.594;2023-04-24T13:09:42;13.00;99.90
7445;DHT22;3764;48.126;11.594;2023-04-24T13:12:10;13.10;99.90
7445;DHT22;3764;48.126;11.594;2023-04-24T13:14:37;13.30;99.90
7445;DHT22;3764;48.126;11.594;2023-04-24T13:17:04;13.30;99.90
7445;DHT22;3764;48.126;11.594;2023-04-24T13:19:36;13.30;99.90
7445;DHT22;3764;48.126;11.594;2023-04-24T13:22:04;13.20;99.90
7445;DHT22;3764;48.126;11.594;2023-04-24T13:24:33;13.20;99.90
7445;DHT22;3764;48.126;11.594;2023-04-24T13:27:00;13.30;99.90
7445;DHT22;3764;48.126;11.594;2023-04-24T13:29:28;13.30;99.90
7445;DHT22;3764;48.126;11.594;2023-04-24T13:31:55;13.20;99.90
7445;DHT22;3764;48.126;11.594;2023-04-24T13:34:23;13.20;99.90
7445;DHT22;3764;48.126;11.594;2023-04-24T13:36:50;13.20;99.90
7445;DHT22;3764;48.126;11.594;2023-04-24T13:39:18;13.20;99.90
7445;DHT22;3764;48.126;11.594;2023-04-24T13:41:46;13.30;99.90
7445;DHT22;3764;48.126;11.594;2023-04-24T13:44:14;13.40;99.90
7445;DHT22;3764;48.126;11.594;2023-04-24T13:46:41;13.50;99.90
7445;DHT22;3764;48.126;11.594;2023-04-24T13:49:10;13.40;99.90
7445;DHT22;3764;48.126;11.594;2023-04-24T13:51:37;13.30;99.90
7445;DHT22;3764;48.126;11.594;2023-04-24T13:54:04;13.30;99.90
7445;DHT22;3764;48.126;11.594;2023-04-24T13:56:31;13.30;99.90
7445;DHT22;3764;48.126;11.594;2023-04-24T13:59:00;13.20;99.90
7445;DHT22;3764;48.126;11.594;2023-04-24T14:01:27;13.10;99.90
7445;DHT22;3764;48.126;11.594;2023-04-24T14:03:55;13.00;99.90
7445;DHT22;3764;48.126;11.594;2023-04-24T14:06:23;13.00;99.90
7445;DHT22;3764;48.126;11.594;2023-04-24T14:08:50;12.80;99.90
7445;DHT22;3764;48.126;11.594;2023-04-24T14:11:18;12.60;99.90
7445;DHT22;3764;48.126;11.594;2023-04-24T14:13:46;12.60;99.90
7445;DHT22;3764;48.126;11.594;2023-04-24T14:16:14;12.70;99.90
7445;DHT22;3764;48.126;11.594;2023-04-24T14:18:41;13.00;99.90
7445;DHT22;3764;48.126;11.594;2023-04-24T14:21:08;13.10;99.90
7445;DHT22;3764;48.126;11.594;2023-04-24T14:23:35;13.10;99.90
7445;DHT22;3764;48.126;11.594;2023-04-24T14:26:03;13.30;99.90
7445;DHT22;3764;48.126;11.594;2023-04-24T14:28:30;13.30;99.90
7445;DHT22;3764;48.126;11.594;2023-04-24T14:30:57;13.50;99.90
7445;DHT22;3764;48.126;11.594;2023-04-24T14:33:26;13.70;99.90
7445;DHT22;3764;48.126;11.594;2023-04-24T14:35:53;14.00;99.90
7445;DHT22;3764;48.126;11.594;2023-04-24T14:38:20;14.20;99.90
7445;DHT22;3764;48.126;11.594;2023-04-24T14:40:47;14.30;99.90
7445;DHT22;3764;48.126;11.594;2023-04-24T14:43:14;14.30;99.90
7445;DHT22;3764;48.126;11.594;2023-04-24T14:45:41;14.30;99.90
7445;DHT22;3764;48.126;11.594;2023-04-24T14:48:08;14.30;99.90
7445;DHT22;3764;48.126;11.594;2023-04-24T14:50:38;14.30;99.90
7445;DHT22;3764;48.126;11.594;2023-04-24T14:53:05;14.40;99.90
7445;DHT22;3764;48.126;11.594;2023-04-24T14:55:32;14.40;99.90
7445;DHT22;3764;48.126;11.594;2023-04-24T14:58:02;14.40;99.90
7445;DHT22;3764;48.126;11.594;2023-04-24T15:00:29;14.30;99.90
7445;DHT22;3764;48.126;11.594;2023-04-24T15:02:56;14.20;99.90
7445;DHT22;3764;48.126;11.594;2023-04-24T15:05:23;14.20;99.90
7445;DHT22;3764;48.126;11.594;2023-04-24T15:07:51;14.20;99.90
7445;DHT22;3764;48.126;11.594;2023-04-24T15:10:19;14.20;99.60
7445;DHT22;3764;48.126;11.594;2023-04-24T15:12:48;14.20;99.00
7445;DHT22;3764;48.126;11.594;2023-04-24T15:15:15;14.20;99.20
7445;DHT22;3764;48.126;11.594;2023-04-24T15:17:42;14.20;99.00
7445;DHT22;3764;48.126;11.594;2023-04-24T15:20:10;14.10;99.10
7445;DHT22;3764;48.126;11.594;2023-04-24T15:22:37;14.00;99.00
7445;DHT22;3764;48.126;11.594;2023-04-24T15:25:06;14.00;99.00
7445;DHT22;3764;48.126;11.594;2023-04-24T15:27:41;13.90;98.50
7445;DHT22;3764;48.126;11.594;2023-04-24T15:30:09;13.80;98.50
7445;DHT22;3764;48.126;11.594;2023-04-24T15:32:38;13.80;98.20
7445;DHT22;3764;48.126;11.594;2023-04-24T15:35:06;13.80;97.70
7445;DHT22;3764;48.126;11.594;2023-04-24T15:37:33;13.80;97.20
7445;DHT22;3764;48.126;11.594;2023-04-24T15:40:00;13.80;97.20
7445;DHT22;3764;48.126;11.594;2023-04-24T15:42:31;13.80;97.20
7445;DHT22;3764;48.126;11.594;2023-04-24T15:44:58;13.80;97.40
7445;DHT22;3764;48.126;11.594;2023-04-24T15:47:25;13.80;96.80
7445;DHT22;3764;48.126;11.594;2023-04-24T15:49:53;13.70;96.60
7445;DHT22;3764;48.126;11.594;2023-04-24T15:52:20;13.70;96.80
7445;DHT22;3764;48.126;11.594;2023-04-24T15:54:47;13.60;96.80
7445;DHT22;3764;48.126;11.594;2023-04-24T15:57:15;13.60;97.20
7445;DHT22;3764;48.126;11.594;2023-04-24T15:59:43;13.60;97.20